sensor_id;sensor_type;location;lat;lon;timestamp;pressure;altitude;pressure_sealevel;temperature;humidity
13604;BME280;24578;48.264;11.436;2023-07-31T00:04:33;96276.84;;;14.51;100.00
13604;BME280;24578;48.264;11.436;2023-07-31T00:10:55;96280.53;;;14.38;100.00
13604;BME280;24578;48.264;11.436;2023-07-31T00:17:17;96284.34;;;14.34;100.00
13604;BME280;24578;48.264;11.436;2023-07-31T00:23:43;96275.06;;;14.41;100.00
13604;BME280;24578;48.264;11.436;2023-07-31T00:30:05;96276.97;;;14.49;100.00
13604;BME280;24578;48.264;11.436;2023-07-31T00:36:26;96271.63;;;14.51;100.00
13604;BME280;24578;48.264;11.436;2023-07-31T00:42:47;96266.53;;;14.39;100.00
13604;BME280;24578;48.264;11.436;2023-07-31T00:49:09;96261.59;;;14.36;100.00
13604;BME280;24578;48.264;11.436;2023-07-31T00:55:30;96248.31;;;14.39;100.00
13604;BME280;24578;48.264;11.436;2023-07-31T01:01:52;96258.72;;;14.39;100.00
13604;BME280;24578;48.264;11.436;2023-07-31T01:08:35;96252.97;;;14.36;100.00
13604;BME280;24578;48.264;11.436;2023-07-31T01:15:05;96247.22;;;14.32;100.00
13604;BME280;24578;48.264;11.436;2023-07-31T01:28:05;96236.66;;;14.34;100.00
13604;BME280;24578;48.264;11.436;2023-07-31T01:34:29;96239.00;;;14.37;100.00
13604;BME280;24578;48.264;11.436;2023-07-31T01:40:51;96234.34;;;14.40;100.00
13604;BME280;24578;48.264;11.436;2023-07-31T01:47:13;96229.41;;;14.37;100.00
13604;BME280;24578;48.264;11.436;2023-07-31T01:53:34;96220.06;;;14.25;100.00
13604;BME280;24578;48.264;11.436;2023-07-31T01:59:56;96228.25;;;14.10;100.00
13604;BME280;24578;48.264;11.436;2023-07-31T02:06:17;96228.47;;;13.97;100.00
13604;BME280;24578;48.264;11.436;2023-07-31T02:12:38;96207.13;;;13.94;100.00
13604;BME280;24578;48.264;11.436;2023-07-31T02:18:59;96210.94;;;13.90;100.00
13604;BME280;24578;48.264;11.436;2023-07-31T02:25:20;96206.00;;;13.96;100.00
13604;BME280;24578;48.264;11.436;2023-07-31T02:31:45;96193.69;;;13.98;100.00
13604;BME280;24578;48.264;11.436;2023-07-31T02:38:07;96181.38;;;14.00;100.00
13604;BME280;24578;48.264;11.436;2023-07-31T02:44:28;96181.25;;;13.92;100.00
13604;BME280;24578;48.264;11.436;2023-07-31T02:50:49;96174.63;;;13.78;100.00
13604;BME280;24578;48.264;11.436;2023-07-31T02:57:10;96186.34;;;13.63;100.00
13604;BME280;24578;48.264;11.436;2023-07-31T03:03:34;96175.75;;;13.45;100.00
13604;BME280;24578;48.264;11.436;2023-07-31T03:09:55;96168.66;;;13.35;100.00
13604;BME280;24578;48.264;11.436;2023-07-31T03:16:16;96169.22;;;13.29;100.00
13604;BME280;24578;48.264;11.436;2023-07-31T03:22:38;96166.66;;;13.39;100.00
13604;BME280;24578;48.264;11.436;2023-07-31T03:28:59;96181.75;;;13.45;100.00
13604;BME280;24578;48.264;11.436;2023-07-31T03:35:20;96181.09;;;13.53;100.00
13604;BME280;24578;48.264;11.436;2023-07-31T03:41:41;96172.94;;;13.67;100.00
13604;BME280;24578;48.264;11.436;2023-07-31T03:48:03;96181.31;;;13.81;100.00
13604;BME280;24578;48.264;11.436;2023-07-31T03:54:25;96183.56;;;13.95;100.00
13604;BME280;24578;48.264;11.436;2023-07-31T04:00:46;96182.22;;;14.01;100.00
13604;BME280;24578;48.264;11.436;2023-07-31T04:07:08;96178.94;;;14.09;100.00
13604;BME280;24578;48.264;11.436;2023-07-31T04:13:29;96173.75;;;14.09;100.00
13604;BME280;24578;48.264;11.436;2023-07-31T04:19:50;96163.22;;;14.20;100.00
13604;BME280;24578;48.264;11.436;2023-07-31T04:26:12;96166.50;;;14.42;100.00
13604;BME280;24578;48.264;11.436;2023-07-31T04:32:33;96174.31;;;14.61;100.00
13604;BME280;24578;48.264;11.436;2023-07-31T04:38:56;96171.31;;;14.76;100.00
13604;BME280;24578;48.264;11.436;2023-07-31T04:45:17;96167.19;;;14.93;100.00
13604;BME280;24578;48.264;11.436;2023-07-31T04:51:38;96156.22;;;15.37;100.00
13604;BME280;24578;48.264;11.436;2023-07-31T04:57:59;96151.66;;;15.87;100.00
13604;BME280;24578;48.264;11.436;2023-07-31T05:04:21;96150.25;;;15.82;100.00
13604;BME280;24578;48.264;11.436;2023-07-31T05:10:42;96155.59;;;17.52;100.00
13604;BME280;24578;48.264;11.436;2023-07-31T05:17:03;96153.22;;;20.22;83.35
13604;BME280;24578;48.264;11.436;2023-07-31T05:23:25;96138.53;;;22.17;61.09
13604;BME280;24578;48.264;11.436;2023-07-31T05:29:46;96139.72;;;22.36;57.05
13604;BME280;24578;48.264;11.436;2023-07-31T05:36:07;96149.16;;;20.43;67.63
13604;BME280;24578;48.264;11.436;2023-07-31T05:42:28;96145.16;;;22.13;63.67
13604;BME280;24578;48.264;11.436;2023-07-31T05:48:49;96144.66;;;21.43;62.93
13604;BME280;24578;48.264;11.436;2023-07-31T05:55:11;96155.03;;;19.90;75.46
13604;BME280;24578;48.264;11.436;2023-07-31T06:01:32;96158.19;;;18.63;90.57
13604;BME280;24578;48.264;11.436;2023-07-31T06:07:53;96165.72;;;18.41;97.42
13604;BME280;24578;48.264;11.436;2023-07-31T06:14:14;96163.41;;;18.38;100.00
13604;BME280;24578;48.264;11.436;2023-07-31T06:20:36;96159.66;;;18.32;100.00
13604;BME280;24578;48.264;11.436;2023-07-31T06:26:57;96155.56;;;18.46;100.00
13604;BME280;24578;48.264;11.436;2023-07-31T06:33:18;96145.94;;;18.96;95.89
13604;BME280;24578;48.264;11.436;2023-07-31T06:39:39;96151.63;;;19.08;90.23
13604;BME280;24578;48.264;11.436;2023-07-31T06:46:09;96152.25;;;19.35;90.45
13604;BME280;24578;48.264;11.436;2023-07-31T06:52:31;96137.16;;;20.40;79.37
13604;BME280;24578;48.264;11.436;2023-07-31T06:58:53;96135.75;;;20.99;73.27
13604;BME280;24578;48.264;11.436;2023-07-31T07:05:15;96141.09;;;21.21;69.33
13604;BME280;24578;48.264;11.436;2023-07-31T07:11:37;96135.84;;;21.81;64.28
13604;BME280;24578;48.264;11.436;2023-07-31T07:17:58;96127.19;;;25.23;50.34
13604;BME280;24578;48.264;11.436;2023-07-31T07:24:19;96114.50;;;26.43;44.35
13604;BME280;24578;48.264;11.436;2023-07-31T07:30:41;96128.44;;;24.74;48.67
13604;BME280;24578;48.264;11.436;2023-07-31T07:37:02;96121.25;;;24.54;49.89
13604;BME280;24578;48.264;11.436;2023-07-31T07:43:23;96098.59;;;25.52;47.76
13604;BME280;24578;48.264;11.436;2023-07-31T07:49:44;96092.31;;;25.47;45.15
13604;BME280;24578;48.264;11.436;2023-07-31T07:56:05;96087.59;;;27.34;42.97
13604;BME280;24578;48.264;11.436;2023-07-31T08:02:27;96078.47;;;29.42;38.30
13604;BME280;24578;48.264;11.436;2023-07-31T08:08:48;96065.09;;;30.24;35.19
13604;BME280;24578;48.264;11.436;2023-07-31T08:15:09;96086.06;;;30.83;33.09
13604;BME280;24578;48.264;11.436;2023-07-31T08:21:31;96094.28;;;28.11;36.66
13604;BME280;24578;48.264;11.436;2023-07-31T08:27:53;96095.50;;;26.08;38.12
13604;BME280;24578;48.264;11.436;2023-07-31T08:34:15;96096.25;;;24.90;40.17
13604;BME280;24578;48.264;11.436;2023-07-31T08:40:36;96094.16;;;24.18;43.23
13604;BME280;24578;48.264;11.436;2023-07-31T08:47:01;96102.88;;;22.93;46.78
13604;BME280;24578;48.264;11.436;2023-07-31T08:53:23;96105.66;;;21.98;52.13
13604;BME280;24578;48.264;11.436;2023-07-31T08:59:45;96105.97;;;22.25;55.13
13604;BME280;24578;48.264;11.436;2023-07-31T09:06:06;96103.53;;;22.74;53.67
13604;BME280;24578;48.264;11.436;2023-07-31T09:12:28;96090.66;;;23.49;50.16
13604;BME280;24578;48.264;11.436;2023-07-31T09:18:53;96074.56;;;25.41;44.52
13604;BME280;24578;48.264;11.436;2023-07-31T09:25:17;96074.25;;;25.76;42.06
13604;BME280;24578;48.264;11.436;2023-07-31T09:31:41;96065.06;;;26.49;39.28
13604;BME280;24578;48.264;11.436;2023-07-31T09:38:10;96063.25;;;27.56;36.38
13604;BME280;24578;48.264;11.436;2023-07-31T09:44:41;96057.03;;;27.44;38.28
13604;BME280;24578;48.264;11.436;2023-07-31T09:51:04;96050.84;;;27.31;38.32
13604;BME280;24578;48.264;11.436;2023-07-31T09:57:26;96036.91;;;29.99;35.01
13604;BME280;24578;48.264;11.436;2023-07-31T10:03:48;96035.28;;;30.61;33.82
13604;BME280;24578;48.264;11.436;2023-07-31T10:10:10;96009.13;;;32.24;30.74
13604;BME280;24578;48.264;11.436;2023-07-31T10:16:32;95988.13;;;32.38;30.12
13604;BME280;24578;48.264;11.436;2023-07-31T10:22:55;95979.00;;;33.30;30.24
13604;BME280;24578;48.264;11.436;2023-07-31T10:29:18;95979.28;;;31.06;31.92
13604;BME280;24578;48.264;11.436;2023-07-31T10:35:40;95987.47;;;29.80;34.51
13604;BME280;24578;48.264;11.436;2023-07-31T10:42:10;95981.53;;;31.86;31.73
13604;BME280;24578;48.264;11.436;2023-07-31T10:48:33;95969.50;;;31.39;30.71
13604;BME280;24578;48.264;11.436;2023-07-31T11:01:55;95969.25;;;30.05;33.33
13604;BME280;24578;48.264;11.436;2023-07-31T11:08:26;95953.72;;;30.36;31.97
13604;BME280;24578;48.264;11.436;2023-07-31T11:14:55;95946.69;;;29.67;33.15
13604;BME280;24578;48.264;11.436;2023-07-31T11:21:25;95955.97;;;29.47;33.52
13604;BME280;24578;48.264;11.436;2023-07-31T11:27:46;95923.06;;;29.01;35.95
13604;BME280;24578;48.264;11.436;2023-07-31T11:34:08;95926.56;;;30.79;31.31
13604;BME280;24578;48.264;11.436;2023-07-31T11:40:29;95913.16;;;31.18;29.96
13604;BME280;24578;48.264;11.436;2023-07-31T11:46:50;95891.53;;;31.47;31.38
13604;BME280;24578;48.264;11.436;2023-07-31T11:53:12;95885.50;;;31.62;30.47
13604;BME280;24578;48.264;11.436;2023-07-31T11:59:34;95880.31;;;32.10;30.08
13604;BME280;24578;48.264;11.436;2023-07-31T12:05:55;95869.66;;;31.50;32.35
13604;BME280;24578;48.264;11.436;2023-07-31T12:12:21;95856.16;;;32.43;30.91
13604;BME280;24578;48.264;11.436;2023-07-31T12:18:43;95835.53;;;33.07;28.76
13604;BME280;24578;48.264;11.436;2023-07-31T12:25:04;95837.50;;;33.74;28.86
13604;BME280;24578;48.264;11.436;2023-07-31T12:31:27;95830.75;;;32.50;29.17
13604;BME280;24578;48.264;11.436;2023-07-31T12:37:49;95832.38;;;31.38;32.08
13604;BME280;24578;48.264;11.436;2023-07-31T12:44:10;95819.69;;;32.95;28.40
13604;BME280;24578;48.264;11.436;2023-07-31T12:50:32;95815.50;;;33.92;28.58
13604;BME280;24578;48.264;11.436;2023-07-31T12:56:53;95802.06;;;34.03;28.42
13604;BME280;24578;48.264;11.436;2023-07-31T13:03:14;95795.50;;;32.74;29.25
13604;BME280;24578;48.264;11.436;2023-07-31T13:09:35;95807.69;;;31.26;30.53
13604;BME280;24578;48.264;11.436;2023-07-31T13:15:57;95804.19;;;31.91;32.24
13604;BME280;24578;48.264;11.436;2023-07-31T13:22:18;95786.53;;;31.89;31.32
13604;BME280;24578;48.264;11.436;2023-07-31T13:28:39;95780.09;;;32.33;32.27
13604;BME280;24578;48.264;11.436;2023-07-31T13:35:00;95771.06;;;32.50;30.32
13604;BME280;24578;48.264;11.436;2023-07-31T13:41:22;95763.63;;;30.79;30.96
13604;BME280;24578;48.264;11.436;2023-07-31T13:47:43;95757.03;;;31.41;30.59
13604;BME280;24578;48.264;11.436;2023-07-31T13:54:04;95762.03;;;30.78;31.71
13604;BME280;24578;48.264;11.436;2023-07-31T14:00:25;95750.00;;;30.08;32.32
13604;BME280;24578;48.264;11.436;2023-07-31T14:06:47;95739.28;;;31.30;30.97
13604;BME280;24578;48.264;11.436;2023-07-31T14:13:09;95739.50;;;31.23;31.72
13604;BME280;24578;48.264;11.436;2023-07-31T14:19:30;95740.50;;;30.40;31.62
13604;BME280;24578;48.264;11.436;2023-07-31T14:25:52;95746.59;;;29.40;34.48
13604;BME280;24578;48.264;11.436;2023-07-31T14:32:15;95746.50;;;29.17;33.80
13604;BME280;24578;48.264;11.436;2023-07-31T14:38:37;95735.06;;;28.18;35.08
13604;BME280;24578;48.264;11.436;2023-07-31T14:44:58;95727.59;;;27.91;36.53
13604;BME280;24578;48.264;11.436;2023-07-31T14:51:19;95725.41;;;28.41;37.02
13604;BME280;24578;48.264;11.436;2023-07-31T14:57:40;95713.84;;;27.83;37.00
13604;BME280;24578;48.264;11.436;2023-07-31T15:04:02;95739.97;;;27.08;37.86
13604;BME280;24578;48.264;11.436;2023-07-31T15:10:23;95739.94;;;26.65;38.55
13604;BME280;24578;48.264;11.436;2023-07-31T15:16:45;95743.84;;;26.13;39.59
13604;BME280;24578;48.264;11.436;2023-07-31T15:23:06;95747.72;;;25.48;42.61
13604;BME280;24578;48.264;11.436;2023-07-31T15:29:29;95742.41;;;24.52;44.17
13604;BME280;24578;48.264;11.436;2023-07-31T15:35:50;95747.31;;;23.69;51.39
13604;BME280;24578;48.264;11.436;2023-07-31T15:42:11;95719.31;;;23.21;55.81
13604;BME280;24578;48.264;11.436;2023-07-31T15:48:33;95747.69;;;22.99;59.48
13604;BME280;24578;48.264;11.436;2023-07-31T15:54:54;95735.50;;;22.91;63.47
13604;BME280;24578;48.264;11.436;2023-07-31T16:01:15;95726.81;;;23.11;62.55
13604;BME280;24578;48.264;11.436;2023-07-31T16:07:37;95710.97;;;22.91;57.02
13604;BME280;24578;48.264;11.436;2023-07-31T16:13:58;95713.97;;;22.74;58.40
13604;BME280;24578;48.264;11.436;2023-07-31T16:20:19;95716.78;;;22.59;57.32
13604;BME280;24578;48.264;11.436;2023-07-31T16:26:41;95702.59;;;22.67;57.74
13604;BME280;24578;48.264;11.436;2023-07-31T16:33:02;95709.47;;;22.61;56.53
13604;BME280;24578;48.264;11.436;2023-07-31T16:39:23;95704.13;;;22.34;56.48
13604;BME280;24578;48.264;11.436;2023-07-31T16:45:45;95709.94;;;22.16;59.54
13604;BME280;24578;48.264;11.436;2023-07-31T16:52:07;95690.31;;;22.32;57.30
13604;BME280;24578;48.264;11.436;2023-07-31T16:58:28;95680.66;;;22.53;55.67
13604;BME280;24578;48.264;11.436;2023-07-31T17:04:49;95687.19;;;22.57;55.67
13604;BME280;24578;48.264;11.436;2023-07-31T17:11:11;95689.59;;;22.59;55.90
13604;BME280;24578;48.264;11.436;2023-07-31T17:17:32;95684.09;;;22.47;56.19
13604;BME280;24578;48.264;11.436;2023-07-31T17:23:54;95667.28;;;22.61;54.85
13604;BME280;24578;48.264;11.436;2023-07-31T17:30:16;95664.97;;;22.31;57.55
13604;BME280;24578;48.264;11.436;2023-07-31T17:36:37;95666.19;;;22.29;58.60
13604;BME280;24578;48.264;11.436;2023-07-31T17:42:58;95650.50;;;22.07;59.25
13604;BME280;24578;48.264;11.436;2023-07-31T17:49:20;95639.13;;;21.93;59.83
13604;BME280;24578;48.264;11.436;2023-07-31T17:55:41;95640.22;;;21.70;61.03
13604;BME280;24578;48.264;11.436;2023-07-31T18:02:02;95632.94;;;21.37;61.92
13604;BME280;24578;48.264;11.436;2023-07-31T18:08:24;95636.34;;;21.31;64.61
13604;BME280;24578;48.264;11.436;2023-07-31T18:14:45;95634.69;;;21.23;66.75
13604;BME280;24578;48.264;11.436;2023-07-31T18:21:06;95627.88;;;21.07;68.04
13604;BME280;24578;48.264;11.436;2023-07-31T18:27:28;95616.31;;;21.02;68.60
13604;BME280;24578;48.264;11.436;2023-07-31T18:33:49;95614.00;;;20.92;68.90
13604;BME280;24578;48.264;11.436;2023-07-31T18:40:11;95606.56;;;20.74;70.16
13604;BME280;24578;48.264;11.436;2023-07-31T18:46:33;95611.22;;;20.50;72.15
13604;BME280;24578;48.264;11.436;2023-07-31T18:52:54;95612.38;;;20.26;74.34
13604;BME280;24578;48.264;11.436;2023-07-31T18:59:15;95607.88;;;19.98;77.67
13604;BME280;24578;48.264;11.436;2023-07-31T19:05:38;95613.50;;;19.80;79.43
13604;BME280;24578;48.264;11.436;2023-07-31T19:12:00;95614.97;;;19.67;80.81
13604;BME280;24578;48.264;11.436;2023-07-31T19:18:21;95610.34;;;19.54;82.73
13604;BME280;24578;48.264;11.436;2023-07-31T19:24:42;95617.16;;;19.33;87.93
13604;BME280;24578;48.264;11.436;2023-07-31T19:31:03;95624.63;;;19.07;94.70
13604;BME280;24578;48.264;11.436;2023-07-31T19:37:25;95634.44;;;18.90;99.41
13604;BME280;24578;48.264;11.436;2023-07-31T19:43:46;95632.72;;;18.82;100.00
13604;BME280;24578;48.264;11.436;2023-07-31T19:50:08;95621.28;;;18.75;100.00
13604;BME280;24578;48.264;11.436;2023-07-31T19:56:29;95621.19;;;18.68;100.00
13604;BME280;24578;48.264;11.436;2023-07-31T20:02:50;95614.09;;;18.53;100.00
13604;BME280;24578;48.264;11.436;2023-07-31T20:09:13;95614.00;;;18.47;100.00
13604;BME280;24578;48.264;11.436;2023-07-31T20:15:35;95612.69;;;18.42;100.00
13604;BME280;24578;48.264;11.436;2023-07-31T20:21:56;95600.13;;;18.38;100.00
13604;BME280;24578;48.264;11.436;2023-07-31T20:28:18;95592.31;;;18.30;100.00
13604;BME280;24578;48.264;11.436;2023-07-31T20:34:39;95585.81;;;18.25;100.00
13604;BME280;24578;48.264;11.436;2023-07-31T20:41:00;95582.22;;;18.26;100.00
13604;BME280;24578;48.264;11.436;2023-07-31T20:47:22;95567.66;;;18.24;100.00
13604;BME280;24578;48.264;11.436;2023-07-31T20:53:43;95571.22;;;18.31;100.00
13604;BME280;24578;48.264;11.436;2023-07-31T21:00:05;95563.81;;;18.35;100.00
13604;BME280;24578;48.264;11.436;2023-07-31T21:06:26;95551.16;;;18.38;100.00
13604;BME280;24578;48.264;11.436;2023-07-31T21:12:48;95547.41;;;18.41;100.00
13604;BME280;24578;48.264;11.436;2023-07-31T21:19:09;95547.41;;;18.41;100.00
13604;BME280;24578;48.264;11.436;2023-07-31T21:25:33;95531.66;;;18.41;100.00
13604;BME280;24578;48.264;11.436;2023-07-31T21:31:54;95533.94;;;18.44;100.00
13604;BME280;24578;48.264;11.436;2023-07-31T21:38:15;95526.78;;;18.38;100.00
13604;BME280;24578;48.264;11.436;2023-07-31T21:44:37;95514.56;;;18.30;100.00
13604;BME280;24578;48.264;11.436;2023-07-31T21:50:58;95507.78;;;18.21;100.00
13604;BME280;24578;48.264;11.436;2023-07-31T21:57:19;95489.69;;;18.11;100.00
13604;BME280;24578;48.264;11.436;2023-07-31T22:03:40;95494.22;;;18.17;100.00
13604;BME280;24578;48.264;11.436;2023-07-31T22:10:01;95491.59;;;18.17;100.00
13604;BME280;24578;48.264;11.436;2023-07-31T22:16:23;95485.66;;;18.23;100.00
13604;BME280;24578;48.264;11.436;2023-07-31T22:22:44;95472.22;;;18.26;100.00
13604;BME280;24578;48.264;11.436;2023-07-31T22:29:05;95472.84;;;18.29;100.00
13604;BME280;24578;48.264;11.436;2023-07-31T22:35:27;95461.00;;;18.18;100.00
13604;BME280;24578;48.264;11.436;2023-07-31T22:41:48;95455.47;;;18.13;100.00
13604;BME280;24578;48.264;11.436;2023-07-31T22:48:09;95446.97;;;18.10;100.00
13604;BME280;24578;48.264;11.436;2023-07-31T22:54:30;95451.09;;;18.05;100.00
13604;BME280;24578;48.264;11.436;2023-07-31T23:01:00;95429.25;;;17.98;100.00
13604;BME280;24578;48.264;11.436;2023-07-31T23:07:22;95437.78;;;17.91;100.00
13604;BME280;24578;48.264;11.436;2023-07-31T23:13:43;95433.06;;;17.87;100.00
13604;BME280;24578;48.264;11.436;2023-07-31T23:20:05;95414.41;;;17.90;100.00
13604;BME280;24578;48.264;11.436;2023-07-31T23:26:26;95399.16;;;17.93;100.00
13604;BME280;24578;48.264;11.436;2023-07-31T23:32:48;95393.84;;;18.02;100.00
13604;BME280;24578;48.264;11.436;2023-07-31T23:39:09;95396.78;;;17.84;100.00
13604;BME280;24578;48.264;11.436;2023-07-31T23:45:30;95383.88;;;17.82;100.00
13604;BME280;24578;48.264;11.436;2023-07-31T23:51:51;95381.81;;;17.92;100.00
13604;BME280;24578;48.264;11.436;2023-07-31T23:58:13;95364.59;;;17.98;100.00
